Andrew Mcallister — WDE5582 — position and weather

sailwx.info

Track history (hours):
 
Tides and Currents Weather Stations Pressure Air Temp Water Temp Dewpoint Dewpoint Depression Visibility Wind Speed Wind Dir Waves Ship Positions

Andrew Mcallister

Owner: McAllister Towing & Transportation Co. Inc., Staten Island, NY. More information available from US FCC via Universal Licensing System and Coast Guard Vessel Documentation Center.

Last reported at 2018-May-08 23:37 UTC. Time now 2018-May-27 21:37 UTC.
Position N 43°39' W 070°15'.
Warning: this ship's position is 18 days out of date.

Length 28 m; draft 4.9 m.

Type: Tug. MMSI: 367368820.

Date/timePositionNaut miles runAvg speedWind from/ knotsBaromVisibWave heightAir tempDewpointWater temp
2018-May-08 23:37N 43°39' W 070°15'1 4.8
2018-May-08 23:30N 43°39' W 070°15'  
2018-May-06 06:22N 42°56' W 070°33'410.1
2018-May-06 06:00N 42°53' W 070°33'510.2
2018-May-06 05:30N 42°48' W 070°33'510.0
2018-May-06 05:00N 42°43' W 070°32'510.4
2018-May-06 04:30N 42°38' W 070°32'510.0
2018-May-06 04:00N 42°33' W 070°34'510.0
2018-May-06 03:30N 42°29' W 070°39'510.2
2018-May-06 03:00N 42°26' W 070°43'510.1
2018-May-06 02:30N 42°23' W 070°49'5 9.2
2018-May-06 02:00N 42°22' W 070°55'4 8.4
2018-May-06 01:30N 42°20' W 071°01'3 6.3
2018-May-06 01:00N 42°23' W 071°03'0 0.0
2018-May-06 00:30N 42°23' W 071°03'0 0.0
2018-May-06 00:00N 42°23' W 071°03'0 0.0
2018-May-05 23:31N 42°23' W 071°03'2 3.7
2018-May-05 23:00N 42°21' W 071°02'4 8.0
2018-May-05 22:30N 42°20' W 070°57'4 8.9
2018-May-05 22:00N 42°19' W 070°51'510.0
2018-May-05 21:28N 42°17' W 070°44'5 9.9
2018-May-05 21:00N 42°14' W 070°40'9 0.7
2018-May-05 07:53N 42°17' W 070°29'411.5
2018-May-05 07:30N 42°21' W 070°30'611.2
2018-May-05 07:00N 42°27' W 070°30'611.2
2018-May-05 06:30N 42°33' W 070°30'510.9
2018-May-05 06:00N 42°38' W 070°28'510.7
2018-May-05 05:30N 42°43' W 070°27'510.6
2018-May-05 05:00N 42°48' W 070°27'510.8
2018-May-05 04:30N 42°54' W 070°25'  
2018-May-01 16:22N 42°51' W 070°26'411.7
2018-May-01 16:00N 42°47' W 070°27'5 9.7
2018-May-01 15:31N 42°42' W 070°30'5 9.3
2018-May-01 15:01N 42°38' W 070°31'5 9.5
2018-May-01 14:30N 42°33' W 070°31'5 9.7
2018-May-01 14:00N 42°28' W 070°31'5 9.9
2018-May-01 13:31N 42°23' W 070°31'5 9.9
2018-May-01 13:01N 42°18' W 070°31'5 9.8
2018-May-01 12:30N 42°13' W 070°31'7 9.7
2018-May-01 11:46N 42°06' W 070°30'10 0.8
2018-Apr-30 23:04N 42°16' W 070°33'211.2
2018-Apr-30 22:54N 42°18' W 070°33'411.3
2018-Apr-30 22:30N 42°22' W 070°34'611.1
2018-Apr-30 22:00N 42°28' W 070°31'611.1
2018-Apr-30 21:30N 42°33' W 070°29'611.5
2018-Apr-30 21:00N 42°39' W 070°30'611.3
2018-Apr-30 20:29N 42°45' W 070°28'511.2
2018-Apr-30 20:00N 42°50' W 070°26'511.2
2018-Apr-30 19:31N 42°55' W 070°25'  
Track history (hours):
 
Tides and Currents Weather Stations Pressure Air Temp Water Temp Dewpoint Dewpoint Depression Visibility Wind Speed Wind Dir Waves Ship Positions

Andrew Mcallister

Owner: McAllister Towing & Transportation Co. Inc., Staten Island, NY. More information available from US FCC via Universal Licensing System and Coast Guard Vessel Documentation Center.

Last reported at 2018-May-08 23:37 UTC. Time now 2018-May-27 21:37 UTC.
Position N 43°39' W 070°15'.
Warning: this ship's position is 18 days out of date.

Length 28 m; draft 4.9 m.

Type: Tug. MMSI: 367368820.

Date/timePositionNaut miles runAvg speedWind from/ knotsBaromVisibWave heightAir tempDewpointWater temp
2018-May-08 23:37N 43°39' W 070°15'1 4.8
2018-May-08 23:30N 43°39' W 070°15'  
2018-May-06 06:22N 42°56' W 070°33'410.1
2018-May-06 06:00N 42°53' W 070°33'510.2
2018-May-06 05:30N 42°48' W 070°33'510.0
2018-May-06 05:00N 42°43' W 070°32'510.4
2018-May-06 04:30N 42°38' W 070°32'510.0
2018-May-06 04:00N 42°33' W 070°34'510.0
2018-May-06 03:30N 42°29' W 070°39'510.2
2018-May-06 03:00N 42°26' W 070°43'510.1
2018-May-06 02:30N 42°23' W 070°49'5 9.2
2018-May-06 02:00N 42°22' W 070°55'4 8.4
2018-May-06 01:30N 42°20' W 071°01'3 6.3
2018-May-06 01:00N 42°23' W 071°03'0 0.0
2018-May-06 00:30N 42°23' W 071°03'0 0.0
2018-May-06 00:00N 42°23' W 071°03'0 0.0
2018-May-05 23:31N 42°23' W 071°03'2 3.7
2018-May-05 23:00N 42°21' W 071°02'4 8.0
2018-May-05 22:30N 42°20' W 070°57'4 8.9
2018-May-05 22:00N 42°19' W 070°51'510.0
2018-May-05 21:28N 42°17' W 070°44'5 9.9
2018-May-05 21:00N 42°14' W 070°40'9 0.7
2018-May-05 07:53N 42°17' W 070°29'411.5
2018-May-05 07:30N 42°21' W 070°30'611.2
2018-May-05 07:00N 42°27' W 070°30'611.2
2018-May-05 06:30N 42°33' W 070°30'510.9
2018-May-05 06:00N 42°38' W 070°28'510.7
2018-May-05 05:30N 42°43' W 070°27'510.6
2018-May-05 05:00N 42°48' W 070°27'510.8
2018-May-05 04:30N 42°54' W 070°25'  
2018-May-01 16:22N 42°51' W 070°26'411.7
2018-May-01 16:00N 42°47' W 070°27'5 9.7
2018-May-01 15:31N 42°42' W 070°30'5 9.3
2018-May-01 15:01N 42°38' W 070°31'5 9.5
2018-May-01 14:30N 42°33' W 070°31'5 9.7
2018-May-01 14:00N 42°28' W 070°31'5 9.9
2018-May-01 13:31N 42°23' W 070°31'5 9.9
2018-May-01 13:01N 42°18' W 070°31'5 9.8
2018-May-01 12:30N 42°13' W 070°31'7 9.7
2018-May-01 11:46N 42°06' W 070°30'10 0.8
2018-Apr-30 23:04N 42°16' W 070°33'211.2
2018-Apr-30 22:54N 42°18' W 070°33'411.3
2018-Apr-30 22:30N 42°22' W 070°34'611.1
2018-Apr-30 22:00N 42°28' W 070°31'611.1
2018-Apr-30 21:30N 42°33' W 070°29'611.5
2018-Apr-30 21:00N 42°39' W 070°30'611.3
2018-Apr-30 20:29N 42°45' W 070°28'511.2
2018-Apr-30 20:00N 42°50' W 070°26'511.2
2018-Apr-30 19:31N 42°55' W 070°25'  

Dump ship's entire track history